createdAt,value
2022-10-09T00:00:05.324Z,85.67
2022-10-09T00:01:05.408Z,85.67
2022-10-09T00:02:05.565Z,85.67
2022-10-09T00:03:05.592Z,85.67
2022-10-09T00:04:05.695Z,85.67
2022-10-09T00:05:05.814Z,85.67
2022-10-09T00:06:05.846Z,85.60
2022-10-09T00:07:05.911Z,85.50
2022-10-09T00:08:06.023Z,85.50
2022-10-09T00:09:06.125Z,85.60
2022-10-09T00:10:06.207Z,85.71
2022-10-09T00:11:06.297Z,85.71
2022-10-09T00:12:06.374Z,85.91
2022-10-09T00:13:06.452Z,85.91
2022-10-09T00:14:06.551Z,85.91
2022-10-09T00:15:06.593Z,85.81
2022-10-09T00:16:06.676Z,85.91
2022-10-09T00:17:06.766Z,86.12
2022-10-09T00:18:06.837Z,86.12
2022-10-09T00:19:06.915Z,86.22
2022-10-09T00:20:06.972Z,86.12
2022-10-09T00:21:07.053Z,86.22
2022-10-09T00:22:07.149Z,86.12
2022-10-09T00:23:07.217Z,86.02
2022-10-09T00:24:07.334Z,86.02
2022-10-09T00:25:07.387Z,86.02
2022-10-09T00:26:07.476Z,86.02
2022-10-09T00:27:07.539Z,85.91
2022-10-09T00:28:07.617Z,85.81
2022-10-09T00:29:07.712Z,85.60
2022-10-09T00:30:07.746Z,85.60
2022-10-09T00:31:07.891Z,85.50
2022-10-09T00:32:07.913Z,85.54
2022-10-09T00:33:08.020Z,85.50
2022-10-09T00:34:08.106Z,85.54
2022-10-09T00:35:08.186Z,85.44
2022-10-09T00:36:08.255Z,85.33
2022-10-09T00:37:08.356Z,85.33
2022-10-09T00:38:08.415Z,85.33
2022-10-09T00:39:08.526Z,85.23
2022-10-09T00:40:08.583Z,85.33
2022-10-09T00:41:08.669Z,85.64
2022-10-09T00:42:08.752Z,85.64
2022-10-09T00:43:08.859Z,85.95
2022-10-09T00:44:08.960Z,85.99
2022-10-09T00:45:09.041Z,85.99
2022-10-09T00:46:09.120Z,86.20
2022-10-09T00:47:09.165Z,86.16
2022-10-09T00:48:09.219Z,86.47
2022-10-09T00:49:09.347Z,86.47
2022-10-09T00:50:09.425Z,86.36
2022-10-09T00:51:09.502Z,86.26
2022-10-09T00:52:09.562Z,86.16
2022-10-09T00:53:09.650Z,85.95
2022-10-09T00:54:09.723Z,85.85
2022-10-09T00:55:09.790Z,85.75
2022-10-09T00:56:09.865Z,85.64
2022-10-09T00:57:09.963Z,85.44
2022-10-09T00:58:10.046Z,85.33
2022-10-09T00:59:10.142Z,85.33
2022-10-09T01:00:10.190Z,85.44
2022-10-09T01:01:10.315Z,85.44
2022-10-09T01:02:10.473Z,85.33
2022-10-09T01:03:10.438Z,85.44
2022-10-09T01:04:10.544Z,85.44
2022-10-09T01:05:10.607Z,85.54
2022-10-09T01:06:10.708Z,85.64
2022-10-09T01:07:10.790Z,85.54
2022-10-09T01:08:10.885Z,85.58
2022-10-09T01:09:10.961Z,85.99
2022-10-09T01:10:11.043Z,86.20
2022-10-09T01:11:11.111Z,86.20
2022-10-09T01:12:11.208Z,86.20
2022-10-09T01:13:11.268Z,86.20
2022-10-09T01:14:11.364Z,86.10
2022-10-09T01:15:11.426Z,85.99
2022-10-09T01:16:11.581Z,85.89
2022-10-09T01:17:11.611Z,85.93
2022-10-09T01:18:11.709Z,85.89
2022-10-09T01:19:11.811Z,85.89
2022-10-09T01:20:11.889Z,85.83
2022-10-09T01:21:11.943Z,85.83
2022-10-09T01:22:12.042Z,85.93
2022-10-09T01:23:12.113Z,86.03
2022-10-09T01:24:12.213Z,86.03
2022-10-09T01:25:12.264Z,86.13
2022-10-09T01:26:12.369Z,86.13
2022-10-09T01:27:12.434Z,86.13
2022-10-09T01:28:12.613Z,86.24
2022-10-09T01:29:12.636Z,86.44
2022-10-09T01:30:12.722Z,86.55
2022-10-09T01:31:12.832Z,86.76
2022-10-09T01:32:12.862Z,86.76
2022-10-09T01:33:12.930Z,86.71
2022-10-09T01:34:13.042Z,86.61
2022-10-09T01:35:13.089Z,86.41
2022-10-09T01:36:13.199Z,86.30
2022-10-09T01:37:13.273Z,86.10
2022-10-09T01:38:13.368Z,85.99
2022-10-09T01:39:13.551Z,85.99
2022-10-09T01:40:13.559Z,85.99
2022-10-09T01:41:13.631Z,85.89
2022-10-09T01:42:13.710Z,85.99
2022-10-09T01:43:13.794Z,86.10
2022-10-09T01:44:13.921Z,86.51
2022-10-09T01:45:13.955Z,86.86
2022-10-09T01:46:14.115Z,86.86
2022-10-09T01:47:14.120Z,86.55
2022-10-09T01:48:14.226Z,86.34
2022-10-09T01:49:14.326Z,86.13
2022-10-09T01:50:14.371Z,86.13
2022-10-09T01:51:14.456Z,86.03
2022-10-09T01:52:14.567Z,85.93
2022-10-09T01:53:14.653Z,85.93
2022-10-09T01:54:14.751Z,86.03
2022-10-09T01:55:14.822Z,86.13
2022-10-09T01:56:14.902Z,86.55
2022-10-09T01:57:14.955Z,86.65
2022-10-09T01:58:15.066Z,86.65
2022-10-09T01:59:16.213Z,86.86
2022-10-09T02:00:15.252Z,86.86
2022-10-09T02:01:15.361Z,86.86
2022-10-09T02:02:15.544Z,86.86
2022-10-09T02:03:15.490Z,86.65
2022-10-09T02:04:15.607Z,86.34
2022-10-09T02:05:15.679Z,86.44
2022-10-09T02:06:15.782Z,86.55
2022-10-09T02:07:15.856Z,86.44
2022-10-09T02:08:15.961Z,86.34
2022-10-09T02:09:16.093Z,86.28
2022-10-09T02:10:16.083Z,86.38
2022-10-09T02:11:16.163Z,86.59
2022-10-09T02:12:16.245Z,86.65
2022-10-09T02:13:16.325Z,86.76
2022-10-09T02:14:16.446Z,86.69
2022-10-09T02:15:16.490Z,86.79
2022-10-09T02:16:16.671Z,86.79
2022-10-09T02:17:16.633Z,86.69
2022-10-09T02:18:16.722Z,86.90
2022-10-09T02:19:16.814Z,86.79
2022-10-09T02:20:16.878Z,86.69
2022-10-09T02:21:16.960Z,86.69
2022-10-09T02:22:17.054Z,86.69
2022-10-09T02:23:17.127Z,86.59
2022-10-09T02:24:17.225Z,86.49
2022-10-09T02:25:17.299Z,86.38
2022-10-09T02:26:17.376Z,86.28
2022-10-09T02:27:17.440Z,86.21
2022-10-09T02:28:17.589Z,86.21
2022-10-09T02:29:17.719Z,86.42
2022-10-09T02:30:17.715Z,87.04
2022-10-09T02:31:17.858Z,87.25
2022-10-09T02:32:17.855Z,87.25
2022-10-09T02:33:17.920Z,87.15
2022-10-09T02:34:18.042Z,87.15
2022-10-09T02:35:18.074Z,87.04
2022-10-09T02:36:18.168Z,86.94
2022-10-09T02:37:18.233Z,86.94
2022-10-09T02:38:18.335Z,86.90
2022-10-09T02:39:18.434Z,86.94
2022-10-09T02:40:18.487Z,86.90
2022-10-09T02:41:18.576Z,87.00
2022-10-09T02:42:18.683Z,87.21
2022-10-09T02:43:18.763Z,87.21
2022-10-09T02:44:18.861Z,87.41
2022-10-09T02:45:18.924Z,87.52
2022-10-09T02:46:19.059Z,87.62
2022-10-09T02:47:19.073Z,87.62
2022-10-09T02:48:19.197Z,87.73
2022-10-09T02:49:19.292Z,87.62
2022-10-09T02:50:19.364Z,87.73
2022-10-09T02:51:19.435Z,87.52
2022-10-09T02:52:19.533Z,87.31
2022-10-09T02:53:19.598Z,87.21
2022-10-09T02:54:19.722Z,87.21
2022-10-09T02:55:19.757Z,87.21
2022-10-09T02:56:19.840Z,87.31
2022-10-09T02:57:19.910Z,87.83
2022-10-09T02:58:20.010Z,88.04
2022-10-09T02:59:20.184Z,88.04
2022-10-09T03:00:20.172Z,88.24
2022-10-09T03:01:20.319Z,88.04
2022-10-09T03:02:20.525Z,87.93
2022-10-09T03:03:20.412Z,87.73
2022-10-09T03:04:20.527Z,87.62
2022-10-09T03:05:20.583Z,87.52
2022-10-09T03:06:20.684Z,87.73
2022-10-09T03:07:20.757Z,87.73
2022-10-09T03:08:20.854Z,87.73
2022-10-09T03:09:20.947Z,87.56
2022-10-09T03:10:21.033Z,87.35
2022-10-09T03:11:21.100Z,87.15
2022-10-09T03:12:21.223Z,86.94
2022-10-09T03:13:21.261Z,86.83
2022-10-09T03:14:21.372Z,86.63
2022-10-09T03:15:21.443Z,86.52
2022-10-09T03:16:21.550Z,86.42
2022-10-09T03:17:21.588Z,86.32
2022-10-09T03:18:21.693Z,86.21
2022-10-09T03:19:21.795Z,86.15
2022-10-09T03:20:21.851Z,86.32
2022-10-09T03:21:21.932Z,86.52
2022-10-09T03:22:22.037Z,86.52
2022-10-09T03:23:22.115Z,86.32
2022-10-09T03:24:22.211Z,86.11
2022-10-09T03:25:22.278Z,86.11
2022-10-09T03:26:22.353Z,86.42
2022-10-09T03:27:22.428Z,86.52
2022-10-09T03:28:22.600Z,86.63
2022-10-09T03:29:22.620Z,86.73
2022-10-09T03:30:22.698Z,86.94
2022-10-09T03:31:50.027Z,87.04
2022-10-09T03:32:22.961Z,87.04
2022-10-09T03:33:22.963Z,86.94
2022-10-09T03:34:23.088Z,86.94
2022-10-09T03:35:23.160Z,86.94
2022-10-09T03:36:23.264Z,86.83
2022-10-09T03:37:23.333Z,86.52
2022-10-09T03:38:23.422Z,86.52
2022-10-09T03:39:23.538Z,86.42
2022-10-09T03:40:23.596Z,86.42
2022-10-09T03:41:23.664Z,86.42
2022-10-09T03:42:23.777Z,86.46
2022-10-09T03:43:23.843Z,86.57
2022-10-09T03:44:23.973Z,86.36
2022-10-09T03:45:24.011Z,86.36
2022-10-09T03:46:24.135Z,86.36
2022-10-09T03:47:24.141Z,86.46
2022-10-09T03:48:24.250Z,86.46
2022-10-09T03:49:24.345Z,86.57
2022-10-09T03:50:24.417Z,86.67
2022-10-09T03:51:24.495Z,86.77
2022-10-09T03:52:24.609Z,86.88
2022-10-09T03:53:24.682Z,86.88
2022-10-09T03:54:24.788Z,86.77
2022-10-09T03:55:24.860Z,86.77
2022-10-09T03:56:24.935Z,86.77
2022-10-09T03:57:25.015Z,86.77
2022-10-09T03:58:25.106Z,87.18
2022-10-09T03:59:25.524Z,87.39
2022-10-09T04:00:25.279Z,87.29
2022-10-09T04:01:25.392Z,87.29
2022-10-09T04:02:25.454Z,87.29
2022-10-09T04:03:25.496Z,87.23
2022-10-09T04:04:25.567Z,87.02
2022-10-09T04:05:25.649Z,86.91
2022-10-09T04:06:25.732Z,86.81
2022-10-09T04:07:25.822Z,86.81
2022-10-09T04:08:25.901Z,86.60
2022-10-09T04:09:26.122Z,86.29
2022-10-09T04:10:26.065Z,86.19
2022-10-09T04:11:26.161Z,86.19
2022-10-09T04:12:26.250Z,86.29
2022-10-09T04:13:26.340Z,86.19
2022-10-09T04:14:26.436Z,86.19
2022-10-09T04:15:26.520Z,86.19
2022-10-09T04:16:26.759Z,86.40
2022-10-09T04:17:26.693Z,86.50
2022-10-09T04:18:26.776Z,86.50
2022-10-09T04:19:26.882Z,86.50
2022-10-09T04:20:26.911Z,86.60
2022-10-09T04:21:27.026Z,86.71
2022-10-09T04:22:27.110Z,86.91
2022-10-09T04:23:27.185Z,87.23
2022-10-09T04:24:27.291Z,87.64
2022-10-09T04:25:27.355Z,87.95
2022-10-09T04:26:27.410Z,87.95
2022-10-09T04:27:27.494Z,87.85
2022-10-09T04:28:27.605Z,87.85
2022-10-09T04:29:27.658Z,87.95
2022-10-09T04:30:27.706Z,88.06
2022-10-09T04:31:27.873Z,88.16
2022-10-09T04:32:27.886Z,88.06
2022-10-09T04:33:27.969Z,87.95
2022-10-09T04:34:28.044Z,87.85
2022-10-09T04:35:28.136Z,87.85
2022-10-09T04:36:28.193Z,87.85
2022-10-09T04:37:28.295Z,87.74
2022-10-09T04:38:28.348Z,87.64
2022-10-09T04:39:28.471Z,87.64
2022-10-09T04:40:28.531Z,87.64
2022-10-09T04:41:28.624Z,87.54
2022-10-09T04:42:28.683Z,87.57
2022-10-09T04:43:28.778Z,87.68
2022-10-09T04:44:28.846Z,87.57
2022-10-09T04:45:29.035Z,87.47
2022-10-09T04:46:28.993Z,87.27
2022-10-09T04:47:29.101Z,87.06
2022-10-09T04:48:29.163Z,86.85
2022-10-09T04:49:29.288Z,86.75
2022-10-09T04:50:29.344Z,86.75
2022-10-09T04:51:29.431Z,86.85
2022-10-09T04:52:29.489Z,86.75
2022-10-09T04:53:29.588Z,86.85
2022-10-09T04:54:29.670Z,87.06
2022-10-09T04:55:29.755Z,87.16
2022-10-09T04:56:29.841Z,87.27
2022-10-09T04:57:29.936Z,87.47
2022-10-09T04:58:30.015Z,87.47
2022-10-09T04:59:30.209Z,87.68
2022-10-09T05:00:30.193Z,87.88
2022-10-09T05:01:33.113Z,87.78
2022-10-09T05:02:30.462Z,87.68
2022-10-09T05:03:30.475Z,87.57
2022-10-09T05:04:30.550Z,87.78
2022-10-09T05:05:30.642Z,87.99
2022-10-09T05:06:30.704Z,87.88
2022-10-09T05:07:30.803Z,87.88
2022-10-09T05:08:30.879Z,87.88
2022-10-09T05:09:31.076Z,87.88
2022-10-09T05:10:31.027Z,87.88
2022-10-09T05:11:31.133Z,87.82
2022-10-09T05:12:31.194Z,87.78
2022-10-09T05:13:31.283Z,87.72
2022-10-09T05:14:31.369Z,87.62
2022-10-09T05:15:31.425Z,87.62
2022-10-09T05:16:31.671Z,87.72
2022-10-09T05:17:31.629Z,87.93
2022-10-09T05:18:31.652Z,87.93
2022-10-09T05:19:31.779Z,87.93
2022-10-09T05:20:31.852Z,87.82
2022-10-09T05:21:31.946Z,87.93
2022-10-09T05:22:32.012Z,87.93
2022-10-09T05:23:32.095Z,87.82
2022-10-09T05:24:32.211Z,87.72
2022-10-09T05:25:32.292Z,87.62
2022-10-09T05:26:32.371Z,87.51
2022-10-09T05:27:32.473Z,87.51
2022-10-09T05:28:32.681Z,87.57
2022-10-09T05:29:32.636Z,87.51
2022-10-09T05:30:32.694Z,87.51
2022-10-09T05:31:32.945Z,87.47
2022-10-09T05:32:32.848Z,87.47
2022-10-09T05:33:32.934Z,87.57
2022-10-09T05:34:33.016Z,87.47
2022-10-09T05:35:33.114Z,87.57
2022-10-09T05:36:33.198Z,87.62
2022-10-09T05:37:33.286Z,87.41
2022-10-09T05:38:33.361Z,87.30
2022-10-09T05:39:33.461Z,87.30
2022-10-09T05:40:33.483Z,87.30
2022-10-09T05:41:33.588Z,87.30
2022-10-09T05:42:33.672Z,87.20
2022-10-09T05:43:33.759Z,87.10
2022-10-09T05:44:33.851Z,87.10
2022-10-09T05:45:34.040Z,87.30
2022-10-09T05:46:34.007Z,87.51
2022-10-09T05:47:34.095Z,87.62
2022-10-09T05:48:34.183Z,87.72
2022-10-09T05:49:34.272Z,87.68
2022-10-09T05:50:34.321Z,87.78
2022-10-09T05:51:34.393Z,87.72
2022-10-09T05:52:34.469Z,87.78
2022-10-09T05:53:34.561Z,87.68
2022-10-09T05:54:34.626Z,87.68
2022-10-09T05:55:34.713Z,87.57
2022-10-09T05:56:34.773Z,87.57
2022-10-09T05:57:34.875Z,87.37
2022-10-09T05:58:34.925Z,87.37
2022-10-09T05:59:35.136Z,87.68
2022-10-09T06:00:35.090Z,87.88
2022-10-09T06:01:35.243Z,87.78
2022-10-09T06:02:35.262Z,87.78
2022-10-09T06:03:35.343Z,88.09
2022-10-09T06:04:35.443Z,88.20
2022-10-09T06:05:35.518Z,88.09
2022-10-09T06:06:35.587Z,87.78
2022-10-09T06:07:35.686Z,87.47
2022-10-09T06:08:35.762Z,87.27
2022-10-09T06:09:35.885Z,87.27
2022-10-09T06:10:35.916Z,87.16
2022-10-09T06:11:36.005Z,87.06
2022-10-09T06:12:36.087Z,86.96
2022-10-09T06:13:36.187Z,86.85
2022-10-09T06:14:36.291Z,86.96
2022-10-09T06:15:36.393Z,86.96
2022-10-09T06:16:36.550Z,86.96
2022-10-09T06:17:36.561Z,86.96
2022-10-09T06:18:36.629Z,86.96
2022-10-09T06:19:36.743Z,86.81
2022-10-09T06:20:36.800Z,86.81
2022-10-09T06:21:36.893Z,86.91
2022-10-09T06:22:36.946Z,87.16
2022-10-09T06:23:37.035Z,87.54
2022-10-09T06:24:37.135Z,88.09
2022-10-09T06:25:37.174Z,88.57
2022-10-09T06:26:37.240Z,88.67
2022-10-09T06:27:37.357Z,88.88
2022-10-09T06:28:37.458Z,88.98
2022-10-09T06:29:37.539Z,88.98
2022-10-09T06:30:38.922Z,89.04
2022-10-09T06:31:37.675Z,89.25
2022-10-09T06:32:37.745Z,89.36
2022-10-09T06:33:37.833Z,89.52
2022-10-09T06:34:37.941Z,89.62
2022-10-09T06:35:37.992Z,89.83
2022-10-09T06:36:38.049Z,89.94
2022-10-09T06:37:38.137Z,90.00
2022-10-09T06:38:38.196Z,90.00
2022-10-09T06:39:38.324Z,90.00
2022-10-09T06:40:38.381Z,89.86
2022-10-09T06:41:38.466Z,89.65
2022-10-09T06:42:38.536Z,89.54
2022-10-09T06:43:38.622Z,89.65
2022-10-09T06:44:38.699Z,89.75
2022-10-09T06:45:38.755Z,89.81
2022-10-09T06:46:38.806Z,89.81
2022-10-09T06:47:38.895Z,89.81
2022-10-09T06:48:38.978Z,89.71
2022-10-09T06:49:39.111Z,89.81
2022-10-09T06:50:39.165Z,89.87
2022-10-09T06:51:39.252Z,89.87
2022-10-09T06:52:39.334Z,89.87
2022-10-09T06:53:39.420Z,89.73
2022-10-09T06:54:39.518Z,89.19
2022-10-09T06:55:39.562Z,87.77
2022-10-09T06:56:39.647Z,85.78
2022-10-09T06:57:39.726Z,85.16
2022-10-09T06:58:39.805Z,84.85
2022-10-09T06:59:39.910Z,84.64
2022-10-09T07:00:39.975Z,84.79
2022-10-09T07:01:40.163Z,85.06
2022-10-09T07:02:43.916Z,84.91
2022-10-09T07:03:40.227Z,84.50
2022-10-09T07:04:40.317Z,84.20
2022-10-09T07:05:40.408Z,83.99
2022-10-09T07:06:40.484Z,83.64
2022-10-09T07:07:40.560Z,83.09
2022-10-09T07:08:40.612Z,82.29
2022-10-09T07:09:40.766Z,79.79
2022-10-09T07:10:40.810Z,77.29
2022-10-09T07:11:40.883Z,75.27
2022-10-09T07:12:40.970Z,70.34
2022-10-09T07:13:41.074Z,68.82
2022-10-09T07:14:41.154Z,65.45
2022-10-09T07:15:41.275Z,62.92
2022-10-09T07:16:41.304Z,60.63
2022-10-09T07:17:41.411Z,58.36
2022-10-09T07:18:41.475Z,57.89
2022-10-09T07:19:41.764Z,56.32
2022-10-09T07:20:41.631Z,55.57
2022-10-09T07:21:41.761Z,53.83
2022-10-09T07:22:41.811Z,53.17
2022-10-09T07:23:41.895Z,52.44
2022-10-09T07:24:41.982Z,52.62
2022-10-09T07:25:42.031Z,50.58
2022-10-09T07:26:42.084Z,50.89
2022-10-09T07:27:42.168Z,50.89
2022-10-09T07:28:42.364Z,50.05
2022-10-09T07:29:42.479Z,49.76
2022-10-09T07:30:42.454Z,50.31
2022-10-09T07:31:42.474Z,49.63
2022-10-09T07:32:42.556Z,47.31
2022-10-09T07:33:42.659Z,46.88
2022-10-09T07:34:42.743Z,46.88
2022-10-09T07:35:42.808Z,45.88
2022-10-09T07:36:42.870Z,47.63
2022-10-09T07:37:42.966Z,48.01
2022-10-09T07:38:43.034Z,47.08
2022-10-09T07:39:45.128Z,45.96
2022-10-09T07:40:43.200Z,46.12
2022-10-09T07:41:43.297Z,44.78
2022-10-09T07:42:43.356Z,44.59
2022-10-09T07:43:43.443Z,45.27
2022-10-09T07:44:43.533Z,44.20
2022-10-09T07:45:43.639Z,44.59
2022-10-09T07:46:43.714Z,44.75
2022-10-09T07:47:43.752Z,44.43
2022-10-09T07:48:43.814Z,43.91
2022-10-09T07:49:43.929Z,43.29
2022-10-09T07:50:44.001Z,41.77
2022-10-09T07:51:44.072Z,41.97
2022-10-09T07:52:44.132Z,42.75
2022-10-09T07:53:44.222Z,41.53
2022-10-09T07:54:44.298Z,41.22
2022-10-09T07:55:44.365Z,41.42
2022-10-09T07:56:44.429Z,41.63
2022-10-09T07:57:44.519Z,41.53
2022-10-09T07:58:44.578Z,41.69
2022-10-09T07:59:44.701Z,41.38
2022-10-09T08:00:44.718Z,39.47
2022-10-09T08:01:44.861Z,40.38
2022-10-09T08:02:44.910Z,40.08
2022-10-09T08:03:44.955Z,40.24
2022-10-09T08:04:45.042Z,39.25
2022-10-09T08:05:45.111Z,39.86
2022-10-09T08:06:45.179Z,40.26
2022-10-09T08:07:45.249Z,39.75
2022-10-09T08:08:45.308Z,39.35
2022-10-09T08:09:45.424Z,39.90
2022-10-09T08:10:45.491Z,40.52
2022-10-09T08:11:45.562Z,41.44
2022-10-09T08:12:45.764Z,41.24
2022-10-09T08:13:45.717Z,41.74
2022-10-09T08:14:46.106Z,42.23
2022-10-09T08:15:45.913Z,42.18
2022-10-09T08:16:45.961Z,42.10
2022-10-09T08:17:46.021Z,43.41
2022-10-09T08:18:46.130Z,42.81
2022-10-09T08:19:46.187Z,43.09
2022-10-09T08:20:46.237Z,42.69
2022-10-09T08:21:46.308Z,43.33
2022-10-09T08:22:46.723Z,42.99
2022-10-09T08:23:46.486Z,41.74
2022-10-09T08:24:46.613Z,41.74
2022-10-09T08:25:46.626Z,40.58
2022-10-09T08:26:46.730Z,39.92
2022-10-09T08:27:46.788Z,41.74
2022-10-09T08:28:46.937Z,40.98
2022-10-09T08:29:46.993Z,40.84
2022-10-09T08:30:47.072Z,41.46
2022-10-09T08:31:47.137Z,41.31
2022-10-09T08:32:47.603Z,40.90
2022-10-09T08:33:47.289Z,40.52
2022-10-09T08:34:47.403Z,40.52
2022-10-09T08:35:47.438Z,40.30
2022-10-09T08:36:47.526Z,40.52
2022-10-09T08:37:47.581Z,40.82
2022-10-09T08:38:48.431Z,40.52
2022-10-09T08:39:47.760Z,40.52
2022-10-09T08:40:47.808Z,40.12
2022-10-09T08:41:47.867Z,40.20
2022-10-09T08:42:48.265Z,39.69
2022-10-09T08:43:48.034Z,39.59
2022-10-09T08:44:48.144Z,39.72
2022-10-09T08:45:48.199Z,41.67
2022-10-09T08:46:48.349Z,41.67
2022-10-09T08:47:48.386Z,41.85
2022-10-09T08:48:48.479Z,41.55
2022-10-09T08:49:48.583Z,42.15
2022-10-09T08:50:48.624Z,44.29
2022-10-09T08:51:48.687Z,45.09
2022-10-09T08:52:50.175Z,44.87
2022-10-09T08:53:48.844Z,44.15
2022-10-09T08:54:48.955Z,42.59
2022-10-09T08:55:49.018Z,41.85
2022-10-09T08:56:49.101Z,41.75
2022-10-09T08:57:49.189Z,41.16
2022-10-09T08:58:49.265Z,41.12
2022-10-09T08:59:49.377Z,39.76
2022-10-09T09:00:49.428Z,38.75
2022-10-09T09:01:49.538Z,39.21
2022-10-09T09:02:49.887Z,40.56
2022-10-09T09:03:49.675Z,40.94
2022-10-09T09:04:54.454Z,40.54
2022-10-09T09:05:49.849Z,40.86
2022-10-09T09:06:49.921Z,41.50
2022-10-09T09:07:49.980Z,42.19
2022-10-09T09:08:50.074Z,41.16
2022-10-09T09:09:50.274Z,40.50
2022-10-09T09:10:50.240Z,39.84
2022-10-09T09:11:50.305Z,38.20
2022-10-09T09:12:50.727Z,37.09
2022-10-09T09:13:50.485Z,38.67
2022-10-09T09:14:50.589Z,40.22
2022-10-09T09:15:50.749Z,41.25
2022-10-09T09:16:50.747Z,41.25
2022-10-09T09:17:50.806Z,41.25
2022-10-09T09:18:50.893Z,41.47
2022-10-09T09:19:51.001Z,41.80
2022-10-09T09:20:51.054Z,41.75
2022-10-09T09:21:51.125Z,41.24
2022-10-09T09:22:51.758Z,40.30
2022-10-09T09:23:51.274Z,40.00
2022-10-09T09:24:51.405Z,39.47
2022-10-09T09:25:51.427Z,40.14
2022-10-09T09:26:51.533Z,40.64
2022-10-09T09:27:51.593Z,40.84
2022-10-09T09:28:51.812Z,40.64
2022-10-09T09:29:51.786Z,40.76
2022-10-09T09:30:51.912Z,41.14
2022-10-09T09:31:51.926Z,41.14
2022-10-09T09:32:52.140Z,40.95
2022-10-09T09:33:52.064Z,40.95
2022-10-09T09:34:52.219Z,41.69
2022-10-09T09:35:52.226Z,42.32
2022-10-09T09:36:52.336Z,43.11
2022-10-09T09:37:52.393Z,42.57
2022-10-09T09:40:52.638Z,42.61
2022-10-09T09:41:52.693Z,43.75
2022-10-09T09:42:52.778Z,43.11
2022-10-09T09:43:52.863Z,43.11
2022-10-09T09:44:52.988Z,42.91
2022-10-09T09:45:53.006Z,42.91
2022-10-09T09:46:53.165Z,43.03
2022-10-09T09:47:53.157Z,43.98
2022-10-09T09:48:53.250Z,44.17
2022-10-09T09:49:53.330Z,44.47
2022-10-09T09:51:10.270Z,44.57
2022-10-09T09:51:53.464Z,43.83
2022-10-09T09:52:53.552Z,43.09
2022-10-09T09:53:53.616Z,42.57
2022-10-09T09:54:53.803Z,42.18
2022-10-09T09:55:53.774Z,42.89
2022-10-09T09:57:12.110Z,42.37
2022-10-09T09:57:53.919Z,42.99
2022-10-09T09:58:54.009Z,43.31
2022-10-09T09:59:54.097Z,43.23
2022-10-09T10:00:54.207Z,44.78
2022-10-09T10:01:54.253Z,44.97
2022-10-09T10:02:54.285Z,45.05
2022-10-09T10:03:54.341Z,45.72
2022-10-09T10:04:54.577Z,45.66
2022-10-09T10:05:54.473Z,46.68
2022-10-09T10:06:54.575Z,46.91
2022-10-09T10:07:54.635Z,48.13
2022-10-09T10:08:54.715Z,48.98
2022-10-09T10:09:54.790Z,49.73
2022-10-09T10:10:54.857Z,50.98
2022-10-09T10:11:54.932Z,51.18
2022-10-09T10:12:55.021Z,51.56
2022-10-09T10:13:55.084Z,50.93
2022-10-09T10:14:55.200Z,50.63
2022-10-09T10:15:55.289Z,50.13
2022-10-09T10:16:55.362Z,50.63
2022-10-09T10:17:55.422Z,50.43
2022-10-09T10:18:55.512Z,51.39
2022-10-09T10:19:55.600Z,52.22
2022-10-09T10:20:55.671Z,53.65
2022-10-09T10:21:55.730Z,54.68
2022-10-09T10:22:55.823Z,54.50
2022-10-09T10:23:55.967Z,54.21
2022-10-09T10:24:56.013Z,54.50
2022-10-09T10:25:56.042Z,54.71
2022-10-09T10:26:56.145Z,54.53
2022-10-09T10:27:56.213Z,54.71
2022-10-09T10:28:56.294Z,55.04
2022-10-09T10:29:56.385Z,56.48
2022-10-09T10:30:56.466Z,55.57
2022-10-09T10:31:56.545Z,55.49
2022-10-09T10:32:56.646Z,56.10
2022-10-09T10:33:56.725Z,56.50
2022-10-09T10:34:56.861Z,56.07
2022-10-09T10:35:56.905Z,56.10
2022-10-09T10:37:01.057Z,56.90
2022-10-09T10:37:57.068Z,57.31
2022-10-09T10:38:57.149Z,56.57
2022-10-09T10:39:57.278Z,56.88
2022-10-09T10:40:57.322Z,55.77
2022-10-09T10:41:57.411Z,56.07
2022-10-09T10:42:59.395Z,56.07
2022-10-09T10:43:57.546Z,56.57
2022-10-09T10:44:57.659Z,56.10
2022-10-09T10:45:57.720Z,56.10
2022-10-09T10:46:57.849Z,56.50
2022-10-09T10:47:57.892Z,55.59
2022-10-09T10:48:57.967Z,55.79
2022-10-09T10:49:58.051Z,56.83
2022-10-09T10:50:58.122Z,57.03
2022-10-09T10:51:58.202Z,57.10
2022-10-09T10:52:58.283Z,57.41
2022-10-09T10:53:58.372Z,56.60
2022-10-09T10:54:58.481Z,56.30
2022-10-09T10:56:04.124Z,55.90
2022-10-09T10:56:58.615Z,56.37
2022-10-09T10:57:58.659Z,56.07
2022-10-09T10:58:58.751Z,55.57
2022-10-09T10:59:58.849Z,55.77
2022-10-09T11:00:58.942Z,56.40
2022-10-09T11:01:58.979Z,56.57
2022-10-09T11:02:59.169Z,55.90
2022-10-09T11:03:59.145Z,56.10
2022-10-09T11:04:59.259Z,56.20
2022-10-09T11:05:59.285Z,54.56
2022-10-09T11:06:59.372Z,53.05
2022-10-09T11:08:00.283Z,54.48
2022-10-09T11:08:59.503Z,55.49
2022-10-09T11:09:59.586Z,55.39
2022-10-09T11:10:59.662Z,54.99
2022-10-09T11:11:59.740Z,55.69
2022-10-09T11:13:00.227Z,54.05
2022-10-09T11:13:59.917Z,54.05
2022-10-09T11:15:00.020Z,54.03
2022-10-09T11:16:00.136Z,52.42
2022-10-09T11:17:00.181Z,53.42
2022-10-09T11:18:00.249Z,53.75
2022-10-09T11:19:00.353Z,53.83
2022-10-09T11:20:00.423Z,53.55
2022-10-09T11:21:00.509Z,53.75
2022-10-09T11:22:00.570Z,52.64
2022-10-09T11:23:00.657Z,51.93
2022-10-09T11:24:00.708Z,52.24
2022-10-09T11:25:00.815Z,51.64
2022-10-09T11:26:00.875Z,50.85
2022-10-09T11:27:03.654Z,52.36
2022-10-09T11:28:01.024Z,52.67
2022-10-09T11:29:01.119Z,52.16
2022-10-09T11:30:03.023Z,52.76
2022-10-09T11:31:01.254Z,53.50
2022-10-09T11:32:01.350Z,53.27
2022-10-09T11:33:01.423Z,52.74
2022-10-09T11:34:01.485Z,52.14
2022-10-09T11:35:01.578Z,52.74
2022-10-09T11:36:01.658Z,51.84
2022-10-09T11:37:01.760Z,51.23
2022-10-09T11:38:01.812Z,51.10
2022-10-09T11:39:01.925Z,51.33
2022-10-09T11:40:01.984Z,50.73
2022-10-09T11:41:05.205Z,50.52
2022-10-09T11:42:02.147Z,50.62
2022-10-09T11:43:02.233Z,51.13
2022-10-09T11:44:02.317Z,50.73
2022-10-09T11:45:02.403Z,51.15
2022-10-09T11:46:02.542Z,50.12
2022-10-09T11:47:03.990Z,49.52
2022-10-09T11:48:02.641Z,50.42
2022-10-09T11:49:02.735Z,50.82
2022-10-09T11:50:02.806Z,50.82
2022-10-09T11:51:02.928Z,50.22
2022-10-09T11:52:02.965Z,50.42
2022-10-09T11:53:03.058Z,51.13
2022-10-09T11:54:03.126Z,51.13
2022-10-09T11:55:03.221Z,51.13
2022-10-09T11:56:03.310Z,51.86
2022-10-09T11:57:05.969Z,52.87
2022-10-09T11:58:03.475Z,53.07
2022-10-09T11:59:03.572Z,53.17
2022-10-09T12:00:03.638Z,52.56
2022-10-09T12:01:03.784Z,52.54
2022-10-09T12:02:03.855Z,50.93
2022-10-09T12:03:03.896Z,49.49
2022-10-09T12:04:03.966Z,49.01
2022-10-09T12:05:04.062Z,49.24
2022-10-09T12:06:04.143Z,49.84
2022-10-09T12:07:04.218Z,50.04
2022-10-09T12:08:04.283Z,49.94
2022-10-09T12:09:04.369Z,50.55
2022-10-09T12:10:04.434Z,50.35
2022-10-09T12:11:04.542Z,51.28
2022-10-09T12:12:04.599Z,51.48
2022-10-09T12:13:04.695Z,50.67
2022-10-09T12:14:04.749Z,51.18
2022-10-09T12:15:04.845Z,50.78
2022-10-09T12:16:04.935Z,51.58
2022-10-09T12:17:04.983Z,51.05
2022-10-09T12:18:05.052Z,50.07
2022-10-09T12:19:05.142Z,50.57
2022-10-09T12:20:05.199Z,50.98
2022-10-09T12:21:05.310Z,51.28
2022-10-09T12:22:05.360Z,51.66
2022-10-09T12:23:25.641Z,51.15
2022-10-09T12:24:05.541Z,51.48
2022-10-09T12:25:05.634Z,50.98
2022-10-09T12:26:05.713Z,51.68
2022-10-09T12:27:05.772Z,52.29
2022-10-09T12:28:05.909Z,52.19
2022-10-09T12:29:05.922Z,52.92
2022-10-09T12:30:05.988Z,53.12
2022-10-09T12:31:06.199Z,52.79
2022-10-09T12:32:06.157Z,52.69
2022-10-09T12:33:06.230Z,52.79
2022-10-09T12:34:06.295Z,53.20
2022-10-09T12:35:06.389Z,53.40
2022-10-09T12:36:06.483Z,52.29
2022-10-09T12:37:06.549Z,53.09
2022-10-09T12:38:06.617Z,53.09
2022-10-09T12:39:06.707Z,53.50
2022-10-09T12:40:06.782Z,53.17
2022-10-09T12:41:06.894Z,53.09
2022-10-09T12:42:06.943Z,53.50
2022-10-09T12:43:07.042Z,53.70
2022-10-09T12:44:07.090Z,54.41
2022-10-09T12:45:07.174Z,53.42
2022-10-09T12:46:07.357Z,53.93
2022-10-09T12:47:07.335Z,54.03
2022-10-09T12:48:07.391Z,54.21
2022-10-09T12:49:07.481Z,54.63
2022-10-09T12:50:07.538Z,54.13
2022-10-09T12:51:07.645Z,54.23
2022-10-09T12:52:07.706Z,54.31
2022-10-09T12:53:07.800Z,54.10
2022-10-09T12:54:07.872Z,54.41
2022-10-09T12:55:07.960Z,54.10